Map

Track Data

SID SEASON NUMBER BASIN SUBBASIN NAME ISO_TIME NATURE LAT LON WMO_WIND WMO_PRES WMO_AGENCY TRACK_TYPE DIST2LAND LANDFALL IFLAG USA_AGENCY USA_ATCF_ID USA_LAT USA_LON USA_RECORD USA_STATUS USA_WIND USA_PRES USA_SSHS USA_R34_NE USA_R34_SE USA_R34_SW USA_R34_NW USA_R50_NE USA_R50_SE USA_R50_SW USA_R50_NW USA_R64_NE USA_R64_SE USA_R64_SW USA_R64_NW USA_POCI USA_ROCI USA_RMW USA_EYE TOKYO_LAT TOKYO_LON TOKYO_GRADE TOKYO_WIND TOKYO_PRES TOKYO_R50_DIR TOKYO_R50_LONG TOKYO_R50_SHORT TOKYO_R30_DIR TOKYO_R30_LONG TOKYO_R30_SHORT TOKYO_LAND CMA_LAT CMA_LON CMA_CAT CMA_WIND CMA_PRES HKO_LAT HKO_LON HKO_CAT HKO_WIND HKO_PRES NEWDELHI_LAT NEWDELHI_LON NEWDELHI_GRADE NEWDELHI_WIND NEWDELHI_PRES NEWDELHI_CI NEWDELHI_DP NEWDELHI_POCI REUNION_LAT REUNION_LON REUNION_TYPE REUNION_WIND REUNION_PRES REUNION_TNUM REUNION_CI REUNION_RMW REUNION_R34_NE REUNION_R34_SE REUNION_R34_SW REUNION_R34_NW REUNION_R50_NE REUNION_R50_SE REUNION_R50_SW REUNION_R50_NW REUNION_R64_NE REUNION_R64_SE REUNION_R64_SW REUNION_R64_NW BOM_LAT BOM_LON BOM_TYPE BOM_WIND BOM_PRES BOM_TNUM BOM_CI BOM_RMW BOM_R34_NE BOM_R34_SE BOM_R34_SW BOM_R34_NW BOM_R50_NE BOM_R50_SE BOM_R50_SW BOM_R50_NW BOM_R64_NE BOM_R64_SE BOM_R64_SW BOM_R64_NW BOM_ROCI BOM_POCI BOM_EYE BOM_POS_METHOD BOM_PRES_METHOD NADI_LAT NADI_LON NADI_CAT NADI_WIND NADI_PRES WELLINGTON_LAT WELLINGTON_LON WELLINGTON_WIND WELLINGTON_PRES DS824_LAT DS824_LON DS824_STAGE DS824_WIND DS824_PRES TD9636_LAT TD9636_LON TD9636_STAGE TD9636_WIND TD9636_PRES TD9635_LAT TD9635_LON TD9635_WIND TD9635_PRES TD9635_ROCI NEUMANN_LAT NEUMANN_LON NEUMANN_CLASS NEUMANN_WIND NEUMANN_PRES MLC_LAT MLC_LON MLC_CLASS MLC_WIND MLC_PRES USA_GUST BOM_GUST BOM_GUST_PER REUNION_GUST REUNION_GUST_PER USA_SEAHGT USA_SEARAD_NE USA_SEARAD_SE USA_SEARAD_SW USA_SEARAD_NW STORM_SPEED STORM_DIR
1907233N23145 1907 41 WP MM NOT_NAMED 1907-08-20 16:00:00 NR 23.0000 144.500 main 1401 1359 __________O___ -1 23.0000 144.500 4 13 315
1907233N23145 1907 41 WP MM NOT_NAMED 1907-08-20 18:00:00 NR 23.3121 144.160 main 1359 1292 __________P___ -1 23.3121 144.160 4 13 315
1907233N23145 1907 41 WP MM NOT_NAMED 1907-08-20 21:00:00 NR 23.7750 143.657 main 1292 1235 __________P___ -1 23.7750 143.657 4 13 315
1907233N23145 1907 41 WP MM NOT_NAMED 1907-08-21 00:00:00 NR 24.2263 143.177 main 1235 1166 __________P___ -1 24.2263 143.177 4 12 316
1907233N23145 1907 41 WP MM NOT_NAMED 1907-08-21 03:00:00 NR 24.6602 142.736 main 1166 1153 __________P___ -1 24.6602 142.736 4 12 318
1907233N23145 1907 41 WP MM NOT_NAMED 1907-08-21 04:00:00 NR 24.8000 142.600 main 1153 1112 __________O___ -1 24.8000 142.600 4 11 320
1907233N23145 1907 41 WP MM NOT_NAMED 1907-08-21 06:00:00 NR 25.0716 142.347 main 1112 1060 __________P___ -1 25.0716 142.347 4 10 321
1907233N23145 1907 41 WP MM NOT_NAMED 1907-08-21 09:00:00 NR 25.4607 142.001 main 1060 1020 __________P___ -1 25.4607 142.001 4 10 321
1907233N23145 1907 41 WP MM NOT_NAMED 1907-08-21 12:00:00 NR 25.8308 141.669 main 1020 962 __________P___ -1 25.8308 141.669 4 9 320
1907233N23145 1907 41 WP MM NOT_NAMED 1907-08-21 15:00:00 NR 26.1850 141.323 main 962 947 __________P___ -1 26.1850 141.323 4 9 318
1907233N23145 1907 41 WP MM NOT_NAMED 1907-08-21 16:00:00 NR 26.3000 141.200 main 947 912 __________O___ -1 26.3000 141.200 4 11 313
1907233N23145 1907 41 WP MM NOT_NAMED 1907-08-21 18:00:00 NR 26.5471 140.887 main 912 848 __________P___ -1 26.5471 140.887 4 11 310
1907233N23145 1907 41 WP MM NOT_NAMED 1907-08-21 21:00:00 NR 26.9052 140.391 main 848 795 __________P___ -1 26.9052 140.391 4 11 308
1907233N23145 1907 41 WP MM NOT_NAMED 1907-08-22 00:00:00 NR 27.2340 139.913 main 795 747 __________P___ -1 27.2340 139.913 4 10 308
1907233N23145 1907 41 WP MM NOT_NAMED 1907-08-22 03:00:00 NR 27.5179 139.508 main 747 732 __________P___ -1 27.5179 139.508 4 9 309
1907233N23145 1907 41 WP MM NOT_NAMED 1907-08-22 04:00:00 NR 27.6000 139.400 main 732 718 __________O___ -1 27.6000 139.400 4 6 315
1907233N23145 1907 41 WP MM NOT_NAMED 1907-08-22 06:00:00 NR 27.7445 139.252 main 718 689 __________P___ -1 27.7445 139.252 4 5 322
1907233N23145 1907 41 WP MM NOT_NAMED 1907-08-22 09:00:00 NR 27.9179 139.120 main 689 669 __________P___ -1 27.9179 139.120 4 4 331
1907233N23145 1907 41 WP MM NOT_NAMED 1907-08-22 12:00:00 NR 28.0530 139.056 main 669 655 __________P___ -1 28.0530 139.056 4 3 340
1907233N23145 1907 41 WP MM NOT_NAMED 1907-08-22 15:00:00 NR 28.1651 139.016 main 655 655 __________P___ -1 28.1651 139.016 4 2 338
1907233N23145 1907 41 WP MM NOT_NAMED 1907-08-22 16:00:00 NR 28.2000 139.000 main 655 645 __________O___ -1 28.2000 139.000 4 2 331
1907233N23145 1907 41 WP MM NOT_NAMED 1907-08-22 18:00:00 NR 28.2687 138.958 main 645 631 __________P___ -1 28.2687 138.958 4 2 327
1907233N23145 1907 41 WP MM NOT_NAMED 1907-08-22 21:00:00 NR 28.3697 138.870 main 631 616 __________P___ -1 28.3697 138.870 4 3 319
1907233N23145 1907 41 WP MM NOT_NAMED 1907-08-23 00:00:00 NR 28.4691 138.762 main 616 598 __________P___ -1 28.4691 138.762 4 3 314
1907233N23145 1907 41 WP MM NOT_NAMED 1907-08-23 03:00:00 NR 28.5674 138.641 main 598 598 __________P___ -1 28.5674 138.641 4 3 312
1907233N23145 1907 41 WP MM NOT_NAMED 1907-08-23 04:00:00 NR 28.6000 138.600 main 598 __________O___ -1 28.6000 138.600 4 3 306

Digital Typhoon Data and Search

About IBTrACS Database

This database is a web-friendly format of International Best Track Archive for Climate Stewardship (IBTrACS), a global best track data archive curated by NOAA dating back to 1842.

Updated: 2021-10-08